createdAt,value
2018-12-27T00:01:31.532Z,988.41
2018-12-27T00:02:31.771Z,988.34
2018-12-27T00:04:24.859Z,988.39
2018-12-27T00:05:25.093Z,988.36
2018-12-27T00:07:29.279Z,988.35
2018-12-27T00:08:29.509Z,988.33
2018-12-27T00:10:33.655Z,988.32
2018-12-27T00:11:33.899Z,988.33
2018-12-27T00:13:38.058Z,988.31
2018-12-27T00:14:38.294Z,988.30
2018-12-27T00:16:42.444Z,988.33
2018-12-27T00:17:42.682Z,988.26
2018-12-27T00:19:46.852Z,988.30
2018-12-27T00:20:47.090Z,988.25
2018-12-27T00:22:51.271Z,988.23
2018-12-27T00:23:51.506Z,988.17
2018-12-27T00:25:55.651Z,988.19
2018-12-27T00:26:55.885Z,988.16
2018-12-27T00:29:00.051Z,988.12
2018-12-27T00:30:00.288Z,988.14
2018-12-27T00:32:04.432Z,988.12
2018-12-27T00:33:04.668Z,988.10
2018-12-27T00:34:57.765Z,988.10
2018-12-27T00:35:58.001Z,988.08
2018-12-27T00:38:02.170Z,988.10
2018-12-27T00:39:02.405Z,988.09
2018-12-27T00:41:06.575Z,988.10
2018-12-27T00:42:06.813Z,988.12
2018-12-27T00:44:10.980Z,988.04
2018-12-27T00:45:11.215Z,988.05
2018-12-27T00:47:15.366Z,988.04
2018-12-27T00:48:15.600Z,988.01
2018-12-27T00:50:20.802Z,988.08
2018-12-27T00:51:21.028Z,988.13
2018-12-27T00:53:25.180Z,988.21
2018-12-27T00:54:25.420Z,988.22
2018-12-27T00:56:29.586Z,988.24
2018-12-27T00:57:29.822Z,988.16
2018-12-27T00:59:33.987Z,988.20
2018-12-27T01:00:34.224Z,988.17
2018-12-27T01:02:38.373Z,988.24
2018-12-27T01:03:38.607Z,988.19
2018-12-27T01:05:42.776Z,988.12
2018-12-27T01:06:43.008Z,988.07
2018-12-27T01:08:47.175Z,988.09
2018-12-27T01:09:47.411Z,988.15
2018-12-27T01:11:51.584Z,988.14
2018-12-27T01:12:51.820Z,988.19
2018-12-27T01:14:44.916Z,988.13
2018-12-27T01:15:45.153Z,988.11
2018-12-27T01:17:49.298Z,988.18
2018-12-27T01:18:49.535Z,988.14
2018-12-27T01:20:53.708Z,988.13
2018-12-27T01:21:53.945Z,988.12
2018-12-27T01:23:58.090Z,988.08
2018-12-27T01:24:58.329Z,988.13
2018-12-27T01:27:02.511Z,988.12
2018-12-27T01:28:02.746Z,988.12
2018-12-27T01:30:06.922Z,988.11
2018-12-27T01:31:07.159Z,988.13
2018-12-27T01:33:18.527Z,988.13
2018-12-27T01:34:11.545Z,988.12
2018-12-27T01:36:15.708Z,988.12
2018-12-27T01:37:15.944Z,988.14
2018-12-27T01:39:20.094Z,988.11
2018-12-27T01:40:20.326Z,988.12
2018-12-27T01:42:24.490Z,988.15
2018-12-27T01:43:24.728Z,988.13
2018-12-27T01:45:28.900Z,988.10
2018-12-27T01:46:29.135Z,988.12
2018-12-27T01:48:33.281Z,988.05
2018-12-27T01:49:33.517Z,988.06
2018-12-27T01:51:37.687Z,988.02
2018-12-27T01:52:37.924Z,988.02
2018-12-27T01:54:31.004Z,987.98
2018-12-27T01:55:31.239Z,987.98
2018-12-27T01:57:35.405Z,987.96
2018-12-27T01:58:35.643Z,987.94
2018-12-27T02:00:39.808Z,987.96
2018-12-27T02:01:40.046Z,987.93
2018-12-27T02:03:44.192Z,987.92
2018-12-27T02:04:44.430Z,987.93
2018-12-27T02:06:48.609Z,987.94
2018-12-27T02:07:48.843Z,987.95
2018-12-27T02:09:52.999Z,987.93
2018-12-27T02:10:53.232Z,987.94
2018-12-27T02:12:57.405Z,987.97
2018-12-27T02:13:57.640Z,987.92
2018-12-27T02:16:01.813Z,987.89
2018-12-27T02:17:02.049Z,987.94
2018-12-27T02:19:06.201Z,987.94
2018-12-27T02:20:06.437Z,987.95
2018-12-27T02:22:10.608Z,987.90
2018-12-27T02:23:10.845Z,987.86
2018-12-27T02:25:03.923Z,987.88
2018-12-27T02:26:04.160Z,987.87
2018-12-27T02:28:08.347Z,987.88
2018-12-27T02:29:08.583Z,987.89
2018-12-27T02:31:12.729Z,987.89
2018-12-27T02:32:12.966Z,987.92
2018-12-27T02:34:17.145Z,987.87
2018-12-27T02:35:17.381Z,987.92
2018-12-27T02:37:21.554Z,987.87
2018-12-27T02:38:21.792Z,987.85
2018-12-27T02:40:25.938Z,987.79
2018-12-27T02:41:26.177Z,987.80
2018-12-27T02:43:30.343Z,987.79
2018-12-27T02:44:30.580Z,987.81
2018-12-27T02:46:34.723Z,987.78
2018-12-27T02:47:34.959Z,987.78
2018-12-27T02:49:39.125Z,987.74
2018-12-27T02:50:39.361Z,987.67
2018-12-27T02:52:43.528Z,987.70
2018-12-27T02:53:43.765Z,987.75
2018-12-27T02:55:47.918Z,987.71
2018-12-27T02:56:48.151Z,987.74
2018-12-27T02:58:52.323Z,987.71
2018-12-27T02:59:52.558Z,987.78
2018-12-27T03:01:56.703Z,987.70
2018-12-27T03:02:56.938Z,987.69
2018-12-27T03:04:51.053Z,987.67
2018-12-27T03:05:51.285Z,987.62
2018-12-27T03:07:55.454Z,987.60
2018-12-27T03:08:55.691Z,987.54
2018-12-27T03:10:59.830Z,987.49
2018-12-27T03:12:00.069Z,987.55
2018-12-27T03:14:04.231Z,987.48
2018-12-27T03:15:04.478Z,987.44
2018-12-27T03:17:08.611Z,987.41
2018-12-27T03:18:08.843Z,987.41
2018-12-27T03:20:13.010Z,987.45
2018-12-27T03:21:13.245Z,987.43
2018-12-27T03:23:17.409Z,987.39
2018-12-27T03:24:17.644Z,987.42
2018-12-27T03:26:21.792Z,987.34
2018-12-27T03:27:22.029Z,987.38
2018-12-27T03:29:26.195Z,987.29
2018-12-27T03:30:26.450Z,987.30
2018-12-27T03:32:30.584Z,987.24
2018-12-27T03:33:30.818Z,987.28
2018-12-27T03:35:34.989Z,987.21
2018-12-27T03:36:35.221Z,987.20
2018-12-27T03:38:39.403Z,987.18
2018-12-27T03:39:39.625Z,987.15
2018-12-27T03:41:43.781Z,987.15
2018-12-27T03:42:44.016Z,987.14
2018-12-27T03:44:37.110Z,987.16
2018-12-27T03:45:37.342Z,987.12
2018-12-27T03:47:41.484Z,987.12
2018-12-27T03:48:41.718Z,987.13
2018-12-27T03:50:45.896Z,987.16
2018-12-27T03:51:46.129Z,987.15
2018-12-27T03:53:50.290Z,987.14
2018-12-27T03:54:50.509Z,987.10
2018-12-27T03:56:54.679Z,987.05
2018-12-27T03:57:54.917Z,987.08
2018-12-27T03:59:59.081Z,987.06
2018-12-27T04:00:59.322Z,987.09
2018-12-27T04:03:03.469Z,987.03
2018-12-27T04:04:03.703Z,987.06
2018-12-27T04:06:07.872Z,987.03
2018-12-27T04:07:08.104Z,987.02
2018-12-27T04:09:12.277Z,986.99
2018-12-27T04:10:12.508Z,986.93
2018-12-27T04:12:16.673Z,986.90
2018-12-27T04:13:16.910Z,986.83
2018-12-27T04:15:21.935Z,986.83
2018-12-27T04:16:22.170Z,986.81
2018-12-27T04:18:26.330Z,986.86
2018-12-27T04:19:26.560Z,986.82
2018-12-27T04:21:30.736Z,986.89
2018-12-27T04:22:30.970Z,986.91
2018-12-27T04:24:24.040Z,986.88
2018-12-27T04:25:24.276Z,986.88
2018-12-27T04:27:28.452Z,986.87
2018-12-27T04:28:28.686Z,986.85
2018-12-27T04:30:32.850Z,986.79
2018-12-27T04:31:33.086Z,986.80
2018-12-27T04:33:37.237Z,986.79
2018-12-27T04:34:37.470Z,986.80
2018-12-27T04:36:41.632Z,986.80
2018-12-27T04:37:41.874Z,986.81
2018-12-27T04:39:47.028Z,986.81
2018-12-27T04:40:47.253Z,986.77
2018-12-27T04:42:51.429Z,986.76
2018-12-27T04:43:51.660Z,986.78
2018-12-27T04:45:55.825Z,986.76
2018-12-27T04:46:56.059Z,986.78
2018-12-27T04:49:00.210Z,986.73
2018-12-27T04:50:00.439Z,986.74
2018-12-27T04:52:04.606Z,986.75
2018-12-27T04:53:04.836Z,986.71
2018-12-27T04:54:57.908Z,986.75
2018-12-27T04:55:58.140Z,986.69
2018-12-27T04:58:02.305Z,986.66
2018-12-27T04:59:02.540Z,986.66
2018-12-27T05:01:06.702Z,986.65
2018-12-27T05:02:06.934Z,986.62
2018-12-27T05:04:18.165Z,986.60
2018-12-27T05:05:11.321Z,986.60
2018-12-27T05:07:15.486Z,986.64
2018-12-27T05:08:15.715Z,986.65
2018-12-27T05:10:19.869Z,986.62
2018-12-27T05:11:20.102Z,986.65
2018-12-27T05:13:24.298Z,986.64
2018-12-27T05:14:24.532Z,986.65
2018-12-27T05:16:28.696Z,986.72
2018-12-27T05:17:28.927Z,986.68
2018-12-27T05:19:33.070Z,986.71
2018-12-27T05:20:33.301Z,986.72
2018-12-27T05:22:37.466Z,986.69
2018-12-27T05:23:37.697Z,986.70
2018-12-27T05:25:41.832Z,986.74
2018-12-27T05:26:42.061Z,986.74
2018-12-27T05:28:46.233Z,986.75
2018-12-27T05:29:46.460Z,986.80
2018-12-27T05:31:51.754Z,986.83
2018-12-27T05:32:50.852Z,986.84
2018-12-27T05:34:43.931Z,986.86
2018-12-27T05:35:44.162Z,986.85
2018-12-27T05:37:48.340Z,986.88
2018-12-27T05:38:48.574Z,986.88
2018-12-27T05:40:52.722Z,986.90
2018-12-27T05:41:52.953Z,986.90
2018-12-27T05:43:57.118Z,986.96
2018-12-27T05:44:57.351Z,986.95
2018-12-27T05:47:01.517Z,986.97
2018-12-27T05:48:01.749Z,986.97
2018-12-27T05:50:05.890Z,986.98
2018-12-27T05:51:06.124Z,986.97
2018-12-27T05:53:10.291Z,987.01
2018-12-27T05:54:10.524Z,986.96
2018-12-27T05:56:14.671Z,986.96
2018-12-27T05:57:14.899Z,986.92
2018-12-27T05:59:19.061Z,986.87
2018-12-27T06:00:19.294Z,986.94
2018-12-27T06:02:23.458Z,986.92
2018-12-27T06:03:23.692Z,986.85
2018-12-27T06:05:27.831Z,986.89
2018-12-27T06:06:28.063Z,986.84
2018-12-27T06:08:32.228Z,986.83
2018-12-27T06:09:32.460Z,986.80
2018-12-27T06:11:36.602Z,986.82
2018-12-27T06:12:36.833Z,986.85
2018-12-27T06:14:29.925Z,986.86
2018-12-27T06:15:30.156Z,986.88
2018-12-27T06:17:34.322Z,986.94
2018-12-27T06:18:34.558Z,986.96
2018-12-27T06:20:39.707Z,986.97
2018-12-27T06:21:39.939Z,986.96
2018-12-27T06:23:44.107Z,987.02
2018-12-27T06:24:44.339Z,986.95
2018-12-27T06:26:48.483Z,986.99
2018-12-27T06:27:48.712Z,986.97
2018-12-27T06:29:52.877Z,986.99
2018-12-27T06:30:53.110Z,986.95
2018-12-27T06:32:57.273Z,986.92
2018-12-27T06:33:57.504Z,986.90
2018-12-27T06:36:01.648Z,986.89
2018-12-27T06:37:01.878Z,986.88
2018-12-27T06:39:06.046Z,986.89
2018-12-27T06:40:06.282Z,986.88
2018-12-27T06:42:10.422Z,986.89
2018-12-27T06:43:10.655Z,986.89
2018-12-27T06:45:03.748Z,986.86
2018-12-27T06:46:03.979Z,986.84
2018-12-27T06:48:08.118Z,986.86
2018-12-27T06:49:08.352Z,986.85
2018-12-27T06:51:12.513Z,986.88
2018-12-27T06:52:12.743Z,986.87
2018-12-27T06:54:16.902Z,986.87
2018-12-27T06:55:17.134Z,986.96
2018-12-27T06:57:21.271Z,986.86
2018-12-27T06:58:21.504Z,986.83
2018-12-27T07:00:25.672Z,986.84
2018-12-27T07:01:25.899Z,986.84
2018-12-27T07:03:30.038Z,986.80
2018-12-27T07:04:30.270Z,986.80
2018-12-27T07:06:34.435Z,986.86
2018-12-27T07:07:34.665Z,986.79
2018-12-27T07:09:38.823Z,986.82
2018-12-27T07:10:39.054Z,986.79
2018-12-27T07:12:43.192Z,986.86
2018-12-27T07:13:43.428Z,986.87
2018-12-27T07:15:47.588Z,986.85
2018-12-27T07:16:47.819Z,986.84
2018-12-27T07:18:51.959Z,986.85
2018-12-27T07:19:52.194Z,986.89
2018-12-27T07:21:56.370Z,986.85
2018-12-27T07:22:56.601Z,986.86
2018-12-27T07:24:49.692Z,986.90
2018-12-27T07:25:49.927Z,986.89
2018-12-27T07:27:54.079Z,986.92
2018-12-27T07:28:54.314Z,986.91
2018-12-27T07:30:58.481Z,986.89
2018-12-27T07:31:58.716Z,986.86
2018-12-27T07:34:02.856Z,986.86
2018-12-27T07:35:03.091Z,986.86
2018-12-27T07:37:07.259Z,986.88
2018-12-27T07:38:07.495Z,986.90
2018-12-27T07:40:11.663Z,987.09
2018-12-27T07:41:11.899Z,987.13
2018-12-27T07:43:16.043Z,987.25
2018-12-27T07:44:16.277Z,987.55
2018-12-27T07:46:20.452Z,987.62
2018-12-27T07:47:20.686Z,987.25
2018-12-27T07:49:24.835Z,986.92
2018-12-27T07:50:25.068Z,986.89
2018-12-27T07:52:29.239Z,986.85
2018-12-27T07:53:29.469Z,986.85
2018-12-27T07:55:33.637Z,986.78
2018-12-27T07:56:33.869Z,986.76
2018-12-27T07:58:39.042Z,986.79
2018-12-27T07:59:39.274Z,986.79
2018-12-27T08:01:43.437Z,986.84
2018-12-27T08:02:43.670Z,986.85
2018-12-27T08:04:36.737Z,987.27
2018-12-27T08:05:36.968Z,987.33
2018-12-27T08:07:41.134Z,986.93
2018-12-27T08:08:41.370Z,986.93
2018-12-27T08:10:45.535Z,986.93
2018-12-27T08:11:45.769Z,986.98
2018-12-27T08:13:49.910Z,987.03
2018-12-27T08:14:50.138Z,987.01
2018-12-27T08:16:54.317Z,986.98
2018-12-27T08:17:54.554Z,986.99
2018-12-27T08:19:58.683Z,986.89
2018-12-27T08:20:58.919Z,986.88
2018-12-27T08:23:03.078Z,986.92
2018-12-27T08:24:03.311Z,986.97
2018-12-27T08:26:07.481Z,986.99
2018-12-27T08:27:07.712Z,986.97
2018-12-27T08:29:11.856Z,987.02
2018-12-27T08:30:12.090Z,987.03
2018-12-27T08:32:16.259Z,987.08
2018-12-27T08:33:16.491Z,987.04
2018-12-27T08:35:20.633Z,987.32
2018-12-27T08:36:20.865Z,987.44
2018-12-27T08:38:25.025Z,988.31
2018-12-27T08:39:25.260Z,987.48
2018-12-27T08:41:29.424Z,986.95
2018-12-27T08:42:29.657Z,986.93
2018-12-27T08:44:22.724Z,986.92
2018-12-27T08:45:22.956Z,986.93
2018-12-27T08:47:27.120Z,986.92
2018-12-27T08:48:27.353Z,986.91
2018-12-27T08:50:31.507Z,986.92
2018-12-27T08:51:31.741Z,986.95
2018-12-27T08:53:35.918Z,986.97
2018-12-27T08:54:36.155Z,986.94
2018-12-27T08:56:40.323Z,986.97
2018-12-27T08:57:40.557Z,986.96
2018-12-27T08:59:44.699Z,987.06
2018-12-27T09:00:44.934Z,987.08
2018-12-27T09:02:49.104Z,987.04
2018-12-27T09:03:49.340Z,987.03
2018-12-27T09:05:53.484Z,987.19
2018-12-27T09:06:53.716Z,987.11
2018-12-27T09:08:57.887Z,987.16
2018-12-27T09:09:58.124Z,987.15
2018-12-27T09:12:02.295Z,987.19
2018-12-27T09:13:02.532Z,987.22
2018-12-27T09:14:55.613Z,987.16
2018-12-27T09:15:55.851Z,987.13
2018-12-27T09:18:00.023Z,987.07
2018-12-27T09:19:00.259Z,987.05
2018-12-27T09:21:04.407Z,987.01
2018-12-27T09:22:04.642Z,987.00
2018-12-27T09:24:08.812Z,986.97
2018-12-27T09:25:09.050Z,986.96
2018-12-27T09:27:13.221Z,986.94
2018-12-27T09:28:13.456Z,987.02
2018-12-27T09:30:17.609Z,986.96
2018-12-27T09:31:17.843Z,986.98
2018-12-27T09:33:22.011Z,987.09
2018-12-27T09:34:22.246Z,987.52
2018-12-27T09:36:26.401Z,988.39
2018-12-27T09:37:26.638Z,988.54
2018-12-27T09:39:30.808Z,988.51
2018-12-27T09:40:31.044Z,988.39
2018-12-27T09:42:35.226Z,988.23
2018-12-27T09:43:35.464Z,988.26
2018-12-27T09:45:39.618Z,988.25
2018-12-27T09:46:39.858Z,988.23
2018-12-27T09:48:44.032Z,988.24
2018-12-27T09:49:44.280Z,988.21
2018-12-27T09:51:48.449Z,988.25
2018-12-27T09:52:48.693Z,988.16
2018-12-27T09:54:41.807Z,988.00
2018-12-27T09:55:42.050Z,988.04
2018-12-27T09:57:46.238Z,987.99
2018-12-27T09:58:46.485Z,988.02
2018-12-27T10:00:50.660Z,987.94
2018-12-27T10:01:50.900Z,987.90
2018-12-27T10:03:55.088Z,987.82
2018-12-27T10:04:55.337Z,987.76
2018-12-27T10:06:59.507Z,987.71
2018-12-27T10:07:59.753Z,987.62
2018-12-27T10:10:03.957Z,987.53
2018-12-27T10:11:04.200Z,987.47
2018-12-27T10:13:08.396Z,987.32
2018-12-27T10:14:08.669Z,987.30
2018-12-27T10:16:12.808Z,987.30
2018-12-27T10:17:13.059Z,987.30
2018-12-27T10:19:17.257Z,987.28
2018-12-27T10:20:17.520Z,987.25
2018-12-27T10:22:21.674Z,987.20
2018-12-27T10:23:21.921Z,987.23
2018-12-27T10:25:27.142Z,987.17
2018-12-27T10:26:27.387Z,987.21
2018-12-27T10:28:31.579Z,987.12
2018-12-27T10:29:31.827Z,987.12
2018-12-27T10:31:35.991Z,987.16
2018-12-27T10:32:36.235Z,987.10
2018-12-27T10:34:29.361Z,987.05
2018-12-27T10:35:29.602Z,986.94
2018-12-27T10:37:33.771Z,986.86
2018-12-27T10:38:34.016Z,986.83
2018-12-27T10:40:38.200Z,986.87
2018-12-27T10:41:38.444Z,986.81
2018-12-27T10:43:42.628Z,986.71
2018-12-27T10:44:42.868Z,986.69
2018-12-27T10:46:47.028Z,986.63
2018-12-27T10:47:47.324Z,986.65
2018-12-27T10:49:51.451Z,986.56
2018-12-27T10:50:51.692Z,986.53
2018-12-27T10:52:55.851Z,986.43
2018-12-27T10:53:56.091Z,986.47
2018-12-27T10:56:00.269Z,986.38
2018-12-27T10:57:00.510Z,986.36
2018-12-27T10:59:04.686Z,986.40
2018-12-27T11:00:04.927Z,986.48
2018-12-27T11:02:09.081Z,986.54
2018-12-27T11:03:09.317Z,986.57
2018-12-27T11:05:02.428Z,986.56
2018-12-27T11:06:02.666Z,986.54
2018-12-27T11:08:06.824Z,986.35
2018-12-27T11:09:07.067Z,986.32
2018-12-27T11:11:11.246Z,986.36
2018-12-27T11:12:11.487Z,986.46
2018-12-27T11:14:15.663Z,986.38
2018-12-27T11:15:15.905Z,986.36
2018-12-27T11:17:20.066Z,986.32
2018-12-27T11:18:20.312Z,986.33
2018-12-27T11:20:24.505Z,986.25
2018-12-27T11:21:24.749Z,986.20
2018-12-27T11:23:28.928Z,986.18
2018-12-27T11:24:29.173Z,986.17
2018-12-27T11:26:33.332Z,986.19
2018-12-27T11:27:33.574Z,986.16
2018-12-27T11:29:37.757Z,986.15
2018-12-27T11:30:38.001Z,986.22
2018-12-27T11:32:42.162Z,986.25
2018-12-27T11:33:42.405Z,986.20
2018-12-27T11:35:46.593Z,986.24
2018-12-27T11:36:46.838Z,986.20
2018-12-27T11:38:51.025Z,986.15
2018-12-27T11:39:51.272Z,986.14
2018-12-27T11:41:55.442Z,986.16
2018-12-27T11:42:55.695Z,986.10
2018-12-27T11:44:48.810Z,985.99
2018-12-27T11:45:49.058Z,985.88
2018-12-27T11:47:53.235Z,985.89
2018-12-27T11:48:53.481Z,985.88
2018-12-27T11:50:57.684Z,985.86
2018-12-27T11:51:57.934Z,985.82
2018-12-27T11:54:02.124Z,985.80
2018-12-27T11:55:02.374Z,985.87
2018-12-27T11:57:06.548Z,985.76
2018-12-27T11:58:06.795Z,985.84
2018-12-27T12:00:10.994Z,985.84
2018-12-27T12:01:11.242Z,985.84
2018-12-27T12:03:15.416Z,985.80
2018-12-27T12:04:15.664Z,985.81
2018-12-27T12:06:19.860Z,985.68
2018-12-27T12:07:20.110Z,985.72
2018-12-27T12:09:24.301Z,985.76
2018-12-27T12:10:24.551Z,985.72
2018-12-27T12:12:28.718Z,985.76
2018-12-27T12:13:28.968Z,985.67
2018-12-27T12:15:33.159Z,985.71
2018-12-27T12:16:33.405Z,985.69
2018-12-27T12:18:37.573Z,985.67
2018-12-27T12:19:37.820Z,985.66
2018-12-27T12:21:42.011Z,985.63
2018-12-27T12:22:42.258Z,985.66
2018-12-27T12:24:35.389Z,985.57
2018-12-27T12:25:35.632Z,985.59
2018-12-27T12:27:39.803Z,985.47
2018-12-27T12:28:40.049Z,985.49
2018-12-27T12:30:44.248Z,985.51
2018-12-27T12:31:44.494Z,985.51
2018-12-27T12:33:48.664Z,985.48
2018-12-27T12:34:48.914Z,985.44
2018-12-27T12:36:53.111Z,985.44
2018-12-27T12:37:53.356Z,985.41
2018-12-27T12:39:57.547Z,985.45
2018-12-27T12:40:57.792Z,985.40
2018-12-27T12:43:01.961Z,985.46
2018-12-27T12:44:02.212Z,985.40
2018-12-27T12:46:06.420Z,985.40
2018-12-27T12:47:06.658Z,985.41
2018-12-27T12:49:10.832Z,985.38
2018-12-27T12:50:11.078Z,985.34
2018-12-27T12:52:16.284Z,985.36
2018-12-27T12:53:16.529Z,985.32
2018-12-27T12:55:20.728Z,985.28
2018-12-27T12:56:20.975Z,985.28
2018-12-27T12:58:25.159Z,985.27
2018-12-27T12:59:25.405Z,985.32
2018-12-27T13:01:29.601Z,985.30
2018-12-27T13:02:29.840Z,985.27
2018-12-27T13:04:22.929Z,985.26
2018-12-27T13:05:23.176Z,985.25
2018-12-27T13:07:27.360Z,985.22
2018-12-27T13:08:27.606Z,985.21
2018-12-27T13:10:31.773Z,985.16
2018-12-27T13:11:32.019Z,985.18
2018-12-27T13:13:36.222Z,985.20
2018-12-27T13:14:36.465Z,985.18
2018-12-27T13:16:40.671Z,985.14
2018-12-27T13:17:40.975Z,985.14
2018-12-27T13:19:45.099Z,985.14
2018-12-27T13:20:45.341Z,985.11
2018-12-27T13:22:49.522Z,985.10
2018-12-27T13:23:49.844Z,985.09
2018-12-27T13:25:54.041Z,985.10
2018-12-27T13:26:54.284Z,985.10
2018-12-27T13:28:58.461Z,985.10
2018-12-27T13:29:58.794Z,985.11
2018-12-27T13:32:02.979Z,985.07
2018-12-27T13:33:03.237Z,985.09
2018-12-27T13:34:56.371Z,985.05
2018-12-27T13:35:56.610Z,985.08
2018-12-27T13:38:00.791Z,985.04
2018-12-27T13:39:01.032Z,985.01
2018-12-27T13:41:05.187Z,985.05
2018-12-27T13:42:05.427Z,985.03
2018-12-27T13:44:09.603Z,985.01
2018-12-27T13:45:09.845Z,985.05
2018-12-27T13:47:14.028Z,985.08
2018-12-27T13:48:14.265Z,985.05
2018-12-27T13:50:18.427Z,985.05
2018-12-27T13:51:18.664Z,985.09
2018-12-27T13:53:22.839Z,985.08
2018-12-27T13:54:23.077Z,985.07
2018-12-27T13:56:27.236Z,985.01
2018-12-27T13:57:27.475Z,985.03
2018-12-27T13:59:31.651Z,985.08
2018-12-27T14:00:31.890Z,985.05
2018-12-27T14:02:37.090Z,984.98
2018-12-27T14:03:37.329Z,985.02
2018-12-27T14:05:41.478Z,985.02
2018-12-27T14:06:41.716Z,985.02
2018-12-27T14:08:45.889Z,985.03
2018-12-27T14:09:46.128Z,985.01
2018-12-27T14:11:50.278Z,985.03
2018-12-27T14:12:50.516Z,985.09
2018-12-27T14:14:43.619Z,985.08
2018-12-27T14:15:43.857Z,985.06
2018-12-27T14:17:49.068Z,985.12
2018-12-27T14:18:49.305Z,985.11
2018-12-27T14:20:54.464Z,985.12
2018-12-27T14:21:54.701Z,985.11
2018-12-27T14:23:58.871Z,985.06
2018-12-27T14:24:59.110Z,985.06
2018-12-27T14:27:04.315Z,985.07
2018-12-27T14:28:04.524Z,985.06
2018-12-27T14:30:08.697Z,985.06
2018-12-27T14:31:08.935Z,985.01
2018-12-27T14:33:13.107Z,985.02
2018-12-27T14:34:13.340Z,985.02
2018-12-27T14:36:17.487Z,985.04
2018-12-27T14:37:17.724Z,985.00
2018-12-27T14:39:21.894Z,984.99
2018-12-27T14:40:22.134Z,985.04
2018-12-27T14:42:26.282Z,984.98
2018-12-27T14:43:26.522Z,984.96
2018-12-27T14:45:30.688Z,984.97
2018-12-27T14:46:30.924Z,984.96
2018-12-27T14:48:35.090Z,985.01
2018-12-27T14:49:35.327Z,984.99
2018-12-27T14:51:39.483Z,984.97
2018-12-27T14:52:39.721Z,984.95
2018-12-27T14:54:32.820Z,984.93
2018-12-27T14:55:33.055Z,984.97
2018-12-27T14:57:37.206Z,984.92
2018-12-27T14:58:37.443Z,984.90
2018-12-27T15:00:41.609Z,984.91
2018-12-27T15:01:41.846Z,984.92
2018-12-27T15:03:46.014Z,984.95
2018-12-27T15:04:46.251Z,984.93
2018-12-27T15:06:50.494Z,984.90
2018-12-27T15:07:50.671Z,984.90
2018-12-27T15:09:54.841Z,984.88
2018-12-27T15:10:55.077Z,984.84
2018-12-27T15:13:00.244Z,984.76
2018-12-27T15:14:00.469Z,984.75
2018-12-27T15:16:04.642Z,984.75
2018-12-27T15:17:04.909Z,984.79
2018-12-27T15:19:09.086Z,984.79
2018-12-27T15:20:09.322Z,984.83
2018-12-27T15:22:13.467Z,984.82
2018-12-27T15:23:13.701Z,984.79
2018-12-27T15:25:06.797Z,984.84
2018-12-27T15:26:07.034Z,984.87
2018-12-27T15:28:11.179Z,984.89
2018-12-27T15:29:11.413Z,984.93
2018-12-27T15:31:15.583Z,984.87
2018-12-27T15:32:15.819Z,984.83
2018-12-27T15:34:21.513Z,984.91
2018-12-27T15:35:20.379Z,984.85
2018-12-27T15:37:24.535Z,984.86
2018-12-27T15:38:24.770Z,984.89
2018-12-27T15:40:29.130Z,984.80
2018-12-27T15:41:29.134Z,984.84
2018-12-27T15:43:33.312Z,984.84
2018-12-27T15:44:33.546Z,984.85
2018-12-27T15:46:37.714Z,984.93
2018-12-27T15:47:37.948Z,984.88
2018-12-27T15:49:42.112Z,984.88
2018-12-27T15:50:42.350Z,984.88
2018-12-27T15:52:46.495Z,984.89
2018-12-27T15:53:46.731Z,984.87
2018-12-27T15:55:50.894Z,984.89
2018-12-27T15:56:51.132Z,984.89
2018-12-27T15:58:55.288Z,984.92
2018-12-27T15:59:55.524Z,984.95
2018-12-27T16:01:59.698Z,984.92
2018-12-27T16:02:59.935Z,984.90
2018-12-27T16:04:53.034Z,984.86
2018-12-27T16:05:53.266Z,984.92
2018-12-27T16:07:57.409Z,984.90
2018-12-27T16:08:57.648Z,984.89
2018-12-27T16:11:01.826Z,984.88
2018-12-27T16:12:02.065Z,984.87
2018-12-27T16:14:06.221Z,984.81
2018-12-27T16:15:06.456Z,984.77
2018-12-27T16:17:10.629Z,984.75
2018-12-27T16:18:10.929Z,984.73
2018-12-27T16:20:16.142Z,984.71
2018-12-27T16:21:16.377Z,984.71
2018-12-27T16:23:20.521Z,984.68
2018-12-27T16:24:20.757Z,984.72
2018-12-27T16:26:24.934Z,984.68
2018-12-27T16:27:25.160Z,984.67
2018-12-27T16:29:29.302Z,984.62
2018-12-27T16:30:29.537Z,984.55
2018-12-27T16:32:33.702Z,984.47
2018-12-27T16:33:33.939Z,984.46
2018-12-27T16:35:38.107Z,984.45
2018-12-27T16:36:38.341Z,984.45
2018-12-27T16:38:42.488Z,984.42
2018-12-27T16:39:42.725Z,984.46
2018-12-27T16:41:46.889Z,984.41
2018-12-27T16:42:47.123Z,984.42
2018-12-27T16:44:40.198Z,984.39
2018-12-27T16:45:40.440Z,984.35
2018-12-27T16:47:44.602Z,984.28
2018-12-27T16:48:44.839Z,984.30
2018-12-27T16:50:49.001Z,984.26
2018-12-27T16:51:49.236Z,984.23
2018-12-27T16:53:53.385Z,984.16
2018-12-27T16:54:53.619Z,984.15
2018-12-27T16:56:57.788Z,984.13
2018-12-27T16:57:58.023Z,984.10
2018-12-27T17:00:02.172Z,984.08
2018-12-27T17:01:02.406Z,984.08
2018-12-27T17:03:06.574Z,984.03
2018-12-27T17:04:06.808Z,984.07
2018-12-27T17:06:10.972Z,984.04
2018-12-27T17:07:16.068Z,984.06
2018-12-27T17:09:15.356Z,983.94
2018-12-27T17:10:15.592Z,983.96
2018-12-27T17:12:19.760Z,983.97
2018-12-27T17:13:19.993Z,983.99
2018-12-27T17:15:24.133Z,984.00
2018-12-27T17:16:24.365Z,984.00
2018-12-27T17:18:28.531Z,984.08
2018-12-27T17:19:28.765Z,984.15
2018-12-27T17:21:32.928Z,984.19
2018-12-27T17:22:33.164Z,984.26
2018-12-27T17:24:26.236Z,984.28
2018-12-27T17:25:26.471Z,984.32
2018-12-27T17:27:30.636Z,984.30
2018-12-27T17:28:30.873Z,984.31
2018-12-27T17:30:35.021Z,984.34
2018-12-27T17:31:35.254Z,984.31
2018-12-27T17:33:39.424Z,984.31
2018-12-27T17:34:39.709Z,984.31
2018-12-27T17:36:43.829Z,984.29
2018-12-27T17:37:44.064Z,984.34
2018-12-27T17:39:48.209Z,984.31
2018-12-27T17:40:48.440Z,984.32
2018-12-27T17:42:52.602Z,984.34
2018-12-27T17:43:52.844Z,984.27
2018-12-27T17:45:56.988Z,984.31
2018-12-27T17:46:57.227Z,984.34
2018-12-27T17:49:01.392Z,984.43
2018-12-27T17:50:01.635Z,984.47
2018-12-27T17:52:05.832Z,984.53
2018-12-27T17:53:06.065Z,984.53
2018-12-27T17:54:59.144Z,984.51
2018-12-27T17:55:59.378Z,984.47
2018-12-27T17:58:03.538Z,984.48
2018-12-27T17:59:03.778Z,984.55
2018-12-27T18:01:07.918Z,984.50
2018-12-27T18:02:08.153Z,984.51
2018-12-27T18:04:12.323Z,984.44
2018-12-27T18:05:12.558Z,984.50
2018-12-27T18:07:16.704Z,984.54
2018-12-27T18:08:16.939Z,984.58
2018-12-27T18:10:21.105Z,984.57
2018-12-27T18:11:21.342Z,984.56
2018-12-27T18:13:25.505Z,984.52
2018-12-27T18:14:25.742Z,984.55
2018-12-27T18:16:29.889Z,984.63
2018-12-27T18:17:30.129Z,984.66
2018-12-27T18:19:35.330Z,984.70
2018-12-27T18:20:35.568Z,984.70
2018-12-27T18:22:39.707Z,984.73
2018-12-27T18:23:39.946Z,984.75
2018-12-27T18:25:44.125Z,984.86
2018-12-27T18:26:44.358Z,984.86
2018-12-27T18:28:48.530Z,984.79
2018-12-27T18:29:48.764Z,984.69
2018-12-27T18:31:52.908Z,984.58
2018-12-27T18:32:53.145Z,984.55
2018-12-27T18:34:46.243Z,984.50
2018-12-27T18:35:46.482Z,984.48
2018-12-27T18:37:50.639Z,984.51
2018-12-27T18:38:50.906Z,984.55
2018-12-27T18:40:55.038Z,984.64
2018-12-27T18:41:55.277Z,984.67
2018-12-27T18:43:59.441Z,984.68
2018-12-27T18:44:59.675Z,984.70
2018-12-27T18:47:03.817Z,984.75
2018-12-27T18:48:04.050Z,984.74
2018-12-27T18:50:08.215Z,984.76
2018-12-27T18:51:08.449Z,984.86
2018-12-27T18:53:13.609Z,984.89
2018-12-27T18:54:13.844Z,984.92
2018-12-27T18:56:18.199Z,984.95
2018-12-27T18:57:18.439Z,984.93
2018-12-27T18:59:22.827Z,984.89
2018-12-27T19:00:22.889Z,984.86
2018-12-27T19:02:27.106Z,984.85
2018-12-27T19:03:27.432Z,984.84
2018-12-27T19:05:31.646Z,984.80